createdAt,value
2018-02-14T00:01:31.631Z,11.60
2018-02-14T00:04:01.111Z,9.18
2018-02-14T00:06:30.615Z,8.77
2018-02-14T00:09:00.122Z,11.73
2018-02-14T00:11:29.594Z,8.23
2018-02-14T00:13:59.119Z,10.15
2018-02-14T00:16:28.588Z,8.45
2018-02-14T00:18:58.087Z,11.88
2018-02-14T00:21:27.551Z,8.35
2018-02-14T00:23:57.048Z,8.40
2018-02-14T00:26:26.535Z,9.63
2018-02-14T00:28:56.044Z,10.93
2018-02-14T00:31:25.521Z,9.38
2018-02-14T00:33:55.015Z,9.27
2018-02-14T00:36:24.468Z,9.52
2018-02-14T00:38:53.971Z,12.02
2018-02-14T00:41:23.444Z,14.52
2018-02-14T00:43:52.948Z,14.43
2018-02-14T00:46:22.414Z,11.75
2018-02-14T00:48:51.926Z,10.63
2018-02-14T00:51:21.439Z,9.05
2018-02-14T00:53:50.980Z,8.68
2018-02-14T00:56:20.480Z,8.25
2018-02-14T00:58:49.973Z,9.40
2018-02-14T01:01:19.474Z,9.70
2018-02-14T01:03:48.931Z,9.98
2018-02-14T01:06:18.421Z,9.82
2018-02-14T01:08:47.924Z,9.85
2018-02-14T01:11:17.636Z,10.10
2018-02-14T01:13:47.115Z,11.52
2018-02-14T01:16:16.640Z,9.63
2018-02-14T01:18:48.057Z,10.60
2018-02-14T01:21:17.557Z,8.25
2018-02-14T01:23:47.034Z,12.48
2018-02-14T01:26:16.541Z,12.32
2018-02-14T01:28:46.001Z,7.85
2018-02-14T01:31:15.521Z,9.77
2018-02-14T01:33:44.995Z,11.07
2018-02-14T01:36:14.488Z,9.90
2018-02-14T01:38:44.003Z,10.55
2018-02-14T01:41:13.530Z,8.32
2018-02-14T01:43:42.999Z,9.40
2018-02-14T01:46:12.505Z,7.57
2018-02-14T01:48:41.997Z,10.90
2018-02-14T01:51:11.470Z,12.65
2018-02-14T01:53:40.998Z,9.70
2018-02-14T01:56:10.478Z,9.30
2018-02-14T01:58:40.010Z,10.77
2018-02-14T02:01:09.493Z,10.65
2018-02-14T02:03:38.979Z,10.13
2018-02-14T02:06:08.452Z,10.80
2018-02-14T02:08:37.962Z,10.40
2018-02-14T02:11:07.448Z,8.55
2018-02-14T02:13:36.955Z,9.95
2018-02-14T02:16:06.415Z,9.60
2018-02-14T02:18:35.943Z,10.45
2018-02-14T02:21:05.422Z,12.77
2018-02-14T02:23:34.928Z,8.57
2018-02-14T02:26:04.419Z,11.52
2018-02-14T02:28:33.918Z,13.43
2018-02-14T02:31:03.585Z,10.82
2018-02-14T02:33:33.091Z,7.70
2018-02-14T02:36:02.556Z,12.98
2018-02-14T02:38:32.065Z,12.55
2018-02-14T02:41:01.534Z,13.90
2018-02-14T02:43:31.036Z,7.72
2018-02-14T02:46:00.510Z,12.63
2018-02-14T02:48:30.017Z,9.77
2018-02-14T02:50:59.477Z,10.55
2018-02-14T02:53:28.984Z,10.57
2018-02-14T02:55:58.456Z,7.70
2018-02-14T02:58:27.958Z,10.80
2018-02-14T03:00:57.453Z,18.08
2018-02-14T03:03:26.919Z,10.48
2018-02-14T03:05:56.429Z,14.45
2018-02-14T03:08:25.913Z,10.73
2018-02-14T03:10:55.425Z,9.80
2018-02-14T03:13:24.953Z,11.68
2018-02-14T03:15:54.424Z,11.20
2018-02-14T03:18:23.949Z,12.52
2018-02-14T03:20:53.507Z,14.48
2018-02-14T03:23:23.017Z,10.05
2018-02-14T03:25:52.491Z,10.20
2018-02-14T03:28:22.000Z,13.50
2018-02-14T03:30:51.526Z,12.73
2018-02-14T03:33:21.013Z,11.75
2018-02-14T03:35:50.503Z,10.73
2018-02-14T03:38:20.156Z,12.55
2018-02-14T03:40:49.624Z,10.02
2018-02-14T03:43:19.192Z,11.48
2018-02-14T03:45:48.642Z,13.43
2018-02-14T03:48:18.137Z,14.73
2018-02-14T03:50:47.602Z,12.25
2018-02-14T03:53:17.129Z,14.15
2018-02-14T03:55:46.613Z,13.77
2018-02-14T03:58:16.102Z,11.88
2018-02-14T04:00:45.548Z,13.40
2018-02-14T04:03:15.061Z,15.70
2018-02-14T04:05:44.553Z,13.10
2018-02-14T04:08:14.067Z,10.73
2018-02-14T04:10:43.552Z,11.02
2018-02-14T04:13:13.195Z,10.85
2018-02-14T04:15:42.706Z,9.63
2018-02-14T04:18:12.175Z,13.88
2018-02-14T04:20:41.880Z,12.05
2018-02-14T04:23:11.340Z,10.38
2018-02-14T04:25:40.903Z,13.00
2018-02-14T04:28:25.245Z,14.77
2018-02-14T04:30:54.771Z,11.55
2018-02-14T04:33:24.259Z,12.48
2018-02-14T04:35:53.768Z,12.27
2018-02-14T04:38:23.258Z,13.45
2018-02-14T04:40:52.763Z,11.35
2018-02-14T04:43:22.261Z,12.37
2018-02-14T04:45:51.738Z,11.05
2018-02-14T04:48:21.261Z,13.25
2018-02-14T04:50:50.718Z,12.40
2018-02-14T04:53:20.219Z,10.93
2018-02-14T04:55:49.733Z,13.30
2018-02-14T04:58:19.259Z,11.85
2018-02-14T05:00:48.716Z,12.45
2018-02-14T05:03:18.221Z,10.20
2018-02-14T05:05:47.705Z,13.32
2018-02-14T05:08:17.205Z,14.68
2018-02-14T05:10:46.689Z,9.82
2018-02-14T05:13:16.205Z,12.20
2018-02-14T05:15:45.678Z,9.50
2018-02-14T05:18:15.213Z,12.45
2018-02-14T05:20:44.738Z,15.65
2018-02-14T05:23:14.252Z,13.48
2018-02-14T05:25:43.706Z,13.13
2018-02-14T05:28:13.212Z,14.00
2018-02-14T05:30:42.707Z,14.87
2018-02-14T05:33:12.218Z,12.20
2018-02-14T05:35:41.913Z,12.57
2018-02-14T05:38:11.400Z,14.90
2018-02-14T05:40:40.901Z,10.38
2018-02-14T05:43:10.388Z,11.90
2018-02-14T05:45:39.922Z,16.15
2018-02-14T05:48:09.390Z,11.50
2018-02-14T05:50:38.892Z,12.60
2018-02-14T05:53:08.362Z,10.15
2018-02-14T05:55:37.858Z,12.88
2018-02-14T05:58:07.333Z,11.88
2018-02-14T06:00:36.830Z,11.60
2018-02-14T06:03:06.325Z,14.00
2018-02-14T06:05:35.840Z,13.18
2018-02-14T06:08:05.328Z,11.43
2018-02-14T06:10:34.807Z,11.90
2018-02-14T06:15:40.110Z,20.12
2018-02-14T06:18:09.590Z,12.90
2018-02-14T06:20:39.091Z,11.23
2018-02-14T06:23:08.598Z,13.02
2018-02-14T06:25:38.093Z,13.30
2018-02-14T06:28:07.571Z,12.98
2018-02-14T06:30:37.056Z,11.73
2018-02-14T06:33:06.547Z,15.77
2018-02-14T06:35:36.060Z,13.15
2018-02-14T06:38:05.543Z,14.18
2018-02-14T06:40:35.029Z,13.62
2018-02-14T06:43:04.492Z,15.60
2018-02-14T06:45:34.001Z,13.93
2018-02-14T06:48:03.484Z,11.68
2018-02-14T06:50:32.940Z,14.65
2018-02-14T06:53:02.451Z,17.25
2018-02-14T06:55:31.948Z,13.70
2018-02-14T06:58:01.437Z,15.07
2018-02-14T07:00:30.945Z,12.20
2018-02-14T07:03:00.434Z,12.18
2018-02-14T07:05:30.030Z,14.70
2018-02-14T07:07:59.526Z,13.45
2018-02-14T07:10:29.050Z,18.98
2018-02-14T07:12:58.541Z,13.57
2018-02-14T07:15:28.054Z,16.98
2018-02-14T07:17:57.550Z,14.50
2018-02-14T07:20:27.065Z,12.50
2018-02-14T07:22:56.572Z,13.70
2018-02-14T07:25:26.058Z,13.60
2018-02-14T07:27:55.526Z,15.63
2018-02-14T07:30:25.047Z,16.30
2018-02-14T07:32:54.561Z,18.05
2018-02-14T07:35:24.088Z,10.90
2018-02-14T07:37:53.538Z,13.95
2018-02-14T07:40:23.007Z,16.42
2018-02-14T07:42:52.537Z,15.85
2018-02-14T07:45:22.066Z,11.82
2018-02-14T07:47:51.533Z,14.80
2018-02-14T07:50:21.015Z,16.00
2018-02-14T07:52:50.501Z,18.08
2018-02-14T07:55:19.987Z,15.88
2018-02-14T07:57:49.464Z,14.40
2018-02-14T08:00:18.966Z,15.30
2018-02-14T08:02:48.428Z,13.75
2018-02-14T08:05:17.954Z,16.55
2018-02-14T08:07:47.437Z,17.33
2018-02-14T08:10:16.973Z,13.80
2018-02-14T08:12:46.419Z,15.35
2018-02-14T08:15:15.938Z,12.68
2018-02-14T08:17:45.680Z,16.10
2018-02-14T08:20:15.209Z,14.10
2018-02-14T08:22:44.732Z,19.70
2018-02-14T08:25:14.225Z,13.90
2018-02-14T08:27:43.722Z,12.13
2018-02-14T08:30:13.221Z,16.17
2018-02-14T08:32:42.734Z,13.68
2018-02-14T08:35:12.317Z,16.87
2018-02-14T08:37:41.823Z,19.45
2018-02-14T08:40:11.631Z,11.98
2018-02-14T08:42:41.093Z,11.65
2018-02-14T08:45:10.955Z,14.05
2018-02-14T08:47:41.260Z,15.50
2018-02-14T08:50:10.927Z,13.50
2018-02-14T08:52:40.434Z,14.20
2018-02-14T08:55:10.322Z,17.48
2018-02-14T08:57:39.846Z,12.48
2018-02-14T09:00:09.885Z,19.15
2018-02-14T09:02:39.411Z,16.27
2018-02-14T09:05:08.974Z,13.70
2018-02-14T09:07:38.459Z,12.32
2018-02-14T09:10:08.296Z,13.27
2018-02-14T09:12:37.807Z,12.02
2018-02-14T09:15:07.573Z,14.48
2018-02-14T09:17:37.127Z,16.98
2018-02-14T09:20:06.948Z,13.40
2018-02-14T09:22:36.512Z,15.07
2018-02-14T09:25:06.515Z,14.95
2018-02-14T09:27:36.063Z,16.15
2018-02-14T09:30:05.750Z,14.93
2018-02-14T09:32:36.228Z,15.32
2018-02-14T09:35:06.043Z,13.95
2018-02-14T09:37:35.610Z,15.80
2018-02-14T09:40:05.312Z,14.52
2018-02-14T09:42:34.871Z,13.60
2018-02-14T09:45:04.593Z,11.85
2018-02-14T09:47:34.118Z,15.57
2018-02-14T09:50:03.758Z,16.60
2018-02-14T09:52:33.274Z,14.90
2018-02-14T09:55:02.935Z,14.70
2018-02-14T09:57:32.480Z,12.35
2018-02-14T10:00:01.976Z,12.75
2018-02-14T10:02:31.497Z,14.45
2018-02-14T10:05:00.982Z,12.85
2018-02-14T10:07:30.505Z,15.90
2018-02-14T10:09:59.966Z,17.95
2018-02-14T10:15:05.599Z,15.77
2018-02-14T10:17:35.146Z,14.55
2018-02-14T10:20:04.870Z,12.60
2018-02-14T10:22:34.394Z,16.27
2018-02-14T10:25:04.207Z,11.45
2018-02-14T10:27:33.817Z,12.45
2018-02-14T10:30:03.595Z,12.77
2018-02-14T10:32:33.122Z,11.98
2018-02-14T10:35:02.860Z,14.70
2018-02-14T10:37:32.451Z,12.98
2018-02-14T10:40:01.916Z,13.75
2018-02-14T10:42:31.468Z,14.32
2018-02-14T10:45:00.952Z,12.43
2018-02-14T10:47:30.472Z,13.90
2018-02-14T10:49:59.982Z,13.23
2018-02-14T10:52:29.451Z,16.08
2018-02-14T10:54:58.958Z,11.77
2018-02-14T10:57:28.434Z,12.18
2018-02-14T10:59:57.977Z,13.40
2018-02-14T11:02:27.416Z,13.55
2018-02-14T11:05:02.895Z,14.68
2018-02-14T11:07:32.589Z,11.50
2018-02-14T11:10:02.156Z,11.93
2018-02-14T11:12:31.688Z,14.30
2018-02-14T11:15:01.165Z,14.75
2018-02-14T11:17:30.676Z,10.18
2018-02-14T11:20:00.467Z,11.07
2018-02-14T11:22:29.991Z,10.85
2018-02-14T11:24:59.442Z,13.10
2018-02-14T11:27:28.957Z,13.82
2018-02-14T11:29:58.479Z,9.60
2018-02-14T11:32:27.987Z,11.57
2018-02-14T11:34:57.475Z,12.60
2018-02-14T11:37:26.982Z,13.02
2018-02-14T11:39:56.501Z,11.25
2018-02-14T11:42:25.984Z,10.45
2018-02-14T11:44:55.494Z,10.02
2018-02-14T11:47:24.981Z,11.65
2018-02-14T11:49:54.481Z,13.07
2018-02-14T11:52:23.960Z,13.68
2018-02-14T11:54:53.491Z,10.07
2018-02-14T11:57:22.970Z,9.60
2018-02-14T11:59:52.467Z,11.55
2018-02-14T12:02:21.987Z,12.40
2018-02-14T12:04:51.448Z,11.88
2018-02-14T12:07:20.962Z,8.82
2018-02-14T12:09:50.468Z,13.43
2018-02-14T12:12:19.997Z,12.93
2018-02-14T12:14:49.514Z,10.52
2018-02-14T12:17:18.977Z,10.80
2018-02-14T12:19:48.501Z,11.20
2018-02-14T12:22:17.967Z,14.87
2018-02-14T12:24:47.468Z,11.95
2018-02-14T12:27:16.955Z,10.00
2018-02-14T12:29:46.618Z,10.13
2018-02-14T12:32:16.106Z,10.48
2018-02-14T12:34:45.629Z,10.07
2018-02-14T12:37:15.152Z,11.68
2018-02-14T12:39:44.659Z,12.95
2018-02-14T12:42:14.139Z,10.88
2018-02-14T12:44:43.689Z,10.70
2018-02-14T12:47:13.128Z,11.25
2018-02-14T12:49:42.652Z,13.32
2018-02-14T12:52:12.124Z,11.27
2018-02-14T12:54:41.629Z,12.32
2018-02-14T12:57:11.070Z,8.57
2018-02-14T12:59:40.593Z,12.80
2018-02-14T13:02:10.072Z,9.55
2018-02-14T13:04:39.564Z,10.85
2018-02-14T13:07:09.084Z,10.25
2018-02-14T13:09:38.582Z,14.75
2018-02-14T13:12:08.101Z,11.93
2018-02-14T13:14:37.622Z,12.30
2018-02-14T13:17:07.119Z,12.73
2018-02-14T13:19:36.597Z,9.57
2018-02-14T13:22:06.187Z,11.23
2018-02-14T13:24:35.702Z,9.80
2018-02-14T13:27:05.163Z,12.55
2018-02-14T13:29:34.695Z,10.82
2018-02-14T13:32:04.161Z,11.45
2018-02-14T13:34:33.665Z,11.35
2018-02-14T13:37:03.156Z,9.52
2018-02-14T13:39:32.663Z,10.32
2018-02-14T13:42:02.173Z,8.88
2018-02-14T13:44:31.670Z,13.20
2018-02-14T13:47:01.150Z,10.07
2018-02-14T13:49:30.782Z,9.60
2018-02-14T13:52:00.288Z,10.80
2018-02-14T13:54:29.763Z,9.45
2018-02-14T13:56:59.213Z,9.38
2018-02-14T13:59:28.741Z,9.15
2018-02-14T14:01:58.248Z,10.57
2018-02-14T14:04:27.744Z,12.37
2018-02-14T14:06:57.211Z,9.77
2018-02-14T14:09:26.701Z,12.40
2018-02-14T14:11:56.397Z,12.95
2018-02-14T14:14:25.922Z,10.45
2018-02-14T14:16:55.399Z,10.85
2018-02-14T14:19:24.935Z,14.65
2018-02-14T14:21:54.415Z,10.05
2018-02-14T14:24:23.938Z,10.75
2018-02-14T14:26:53.408Z,11.02
2018-02-14T14:29:22.938Z,12.00
2018-02-14T14:31:52.391Z,13.57
2018-02-14T14:34:21.918Z,12.55
2018-02-14T14:36:51.427Z,11.18
2018-02-14T14:39:20.929Z,12.43
2018-02-14T14:41:50.585Z,11.88
2018-02-14T14:44:20.060Z,12.93
2018-02-14T14:46:49.544Z,13.93
2018-02-14T14:49:19.021Z,12.90
2018-02-14T14:51:48.516Z,14.10
2018-02-14T14:54:18.023Z,11.15
2018-02-14T14:56:47.546Z,13.75
2018-02-14T14:59:17.151Z,13.43
2018-02-14T15:01:46.671Z,11.52
2018-02-14T15:04:16.159Z,12.07
2018-02-14T15:06:45.817Z,10.85
2018-02-14T15:09:15.322Z,12.95
2018-02-14T15:11:44.816Z,13.00
2018-02-14T15:14:14.329Z,15.73
2018-02-14T15:16:43.798Z,12.90
2018-02-14T15:19:13.305Z,13.73
2018-02-14T15:21:42.768Z,14.70
2018-02-14T15:24:12.286Z,14.70
2018-02-14T15:26:41.773Z,12.10
2018-02-14T15:29:11.252Z,14.20
2018-02-14T15:31:40.734Z,16.17
2018-02-14T15:34:10.331Z,16.98
2018-02-14T15:36:39.803Z,12.27
2018-02-14T15:39:09.353Z,12.98
2018-02-14T15:41:38.906Z,12.25
2018-02-14T15:44:08.406Z,17.02
2018-02-14T15:46:37.895Z,12.73
2018-02-14T15:49:07.425Z,13.15
2018-02-14T15:51:36.926Z,13.00
2018-02-14T15:54:06.448Z,14.02
2018-02-14T15:56:35.931Z,12.57
2018-02-14T15:59:05.415Z,13.90
2018-02-14T16:01:34.965Z,11.80
2018-02-14T16:04:04.429Z,15.68
2018-02-14T16:06:33.934Z,17.85
2018-02-14T16:09:03.394Z,16.70
2018-02-14T16:11:32.899Z,14.00
2018-02-14T16:14:02.414Z,14.35
2018-02-14T16:16:31.938Z,13.95
2018-02-14T16:19:01.437Z,14.00
2018-02-14T16:21:30.946Z,15.82
2018-02-14T16:24:00.446Z,13.45
2018-02-14T16:26:29.930Z,15.07
2018-02-14T16:28:59.459Z,17.10
2018-02-14T16:31:28.936Z,13.48
2018-02-14T16:33:58.473Z,11.82
2018-02-14T16:36:27.989Z,12.55
2018-02-14T16:38:57.458Z,14.70
2018-02-14T16:41:27.009Z,15.25
2018-02-14T16:43:56.510Z,16.90
2018-02-14T16:46:26.035Z,13.13
2018-02-14T16:48:55.501Z,11.98
2018-02-14T16:51:25.053Z,14.15
2018-02-14T16:53:54.562Z,13.25
2018-02-14T16:56:24.088Z,14.48
2018-02-14T16:58:53.599Z,13.62
2018-02-14T17:01:23.104Z,13.00
2018-02-14T17:03:52.608Z,14.20
2018-02-14T17:06:22.094Z,13.05
2018-02-14T17:08:51.596Z,14.10
2018-02-14T17:11:21.085Z,13.10
2018-02-14T17:13:50.596Z,13.73
2018-02-14T17:16:20.081Z,15.25
2018-02-14T17:18:49.548Z,17.08
2018-02-14T17:21:19.061Z,20.35
2018-02-14T17:23:48.528Z,19.95
2018-02-14T17:26:18.090Z,16.65
2018-02-14T17:28:47.583Z,21.65
2018-02-14T17:31:17.180Z,14.60
2018-02-14T17:33:46.708Z,16.25
2018-02-14T17:36:16.682Z,15.65
2018-02-14T17:38:46.184Z,13.55
2018-02-14T17:41:15.734Z,19.95
2018-02-14T17:43:45.243Z,12.73
2018-02-14T17:46:14.750Z,14.07
2018-02-14T17:48:44.221Z,16.52
2018-02-14T17:51:13.772Z,17.10
2018-02-14T17:53:43.293Z,17.45
2018-02-14T17:56:12.814Z,15.07
2018-02-14T17:58:42.358Z,15.98
2018-02-14T18:01:11.856Z,17.75
2018-02-14T18:03:41.377Z,18.95
2018-02-14T18:06:10.844Z,18.20
2018-02-14T18:08:40.376Z,17.45
2018-02-14T18:11:09.876Z,15.38
2018-02-14T18:13:39.604Z,15.32
2018-02-14T18:16:12.067Z,19.67
2018-02-14T18:18:41.571Z,15.68
2018-02-14T18:21:11.083Z,13.50
2018-02-14T18:23:40.542Z,18.60
2018-02-14T18:26:10.071Z,16.55
2018-02-14T18:28:39.539Z,17.15
2018-02-14T18:31:09.060Z,17.98
2018-02-14T18:33:38.532Z,17.20
2018-02-14T18:36:08.044Z,18.40
2018-02-14T18:38:37.537Z,15.15
2018-02-14T18:41:07.081Z,16.00
2018-02-14T18:43:36.622Z,19.50
2018-02-14T18:46:06.101Z,16.70
2018-02-14T18:48:35.620Z,21.50
2018-02-14T18:51:05.138Z,17.40
2018-02-14T18:53:34.667Z,16.77
2018-02-14T18:56:04.153Z,17.37
2018-02-14T18:58:33.677Z,19.95
2018-02-14T19:01:03.168Z,20.62
2018-02-14T19:03:32.707Z,17.15
2018-02-14T19:06:02.224Z,17.90
2018-02-14T19:08:31.719Z,18.60
2018-02-14T19:11:01.212Z,22.17
2018-02-14T19:13:30.732Z,18.60
2018-02-14T19:16:00.196Z,22.67
2018-02-14T19:18:29.706Z,18.17
2018-02-14T19:20:59.197Z,17.12
2018-02-14T19:23:28.747Z,16.60
2018-02-14T19:25:58.302Z,18.80
2018-02-14T19:28:27.793Z,16.77
2018-02-14T19:30:57.326Z,16.27
2018-02-14T19:33:26.855Z,21.48
2018-02-14T19:35:56.396Z,16.92
2018-02-14T19:38:25.917Z,23.05
2018-02-14T19:40:55.452Z,20.67
2018-02-14T19:43:24.938Z,18.60
2018-02-14T19:45:54.484Z,22.10
2018-02-14T19:48:23.978Z,18.55
2018-02-14T19:50:53.706Z,20.52
2018-02-14T19:53:23.217Z,19.95
2018-02-14T19:55:52.730Z,22.05
2018-02-14T19:58:22.259Z,19.90
2018-02-14T20:00:51.819Z,20.92
2018-02-14T20:03:21.313Z,18.52
2018-02-14T20:05:50.856Z,18.55
2018-02-14T20:08:20.405Z,18.15
2018-02-14T20:10:49.961Z,21.48
2018-02-14T20:13:19.525Z,17.52
2018-02-14T20:15:49.034Z,18.17
2018-02-14T20:18:18.542Z,20.37
2018-02-14T20:20:48.052Z,19.20
2018-02-14T20:23:17.588Z,19.33
2018-02-14T20:25:47.118Z,17.98
2018-02-14T20:28:16.639Z,22.08
2018-02-14T20:30:46.155Z,20.95
2018-02-14T20:33:15.750Z,18.20
2018-02-14T20:35:45.297Z,17.40
2018-02-14T20:38:14.785Z,20.10
2018-02-14T20:40:44.344Z,23.62
2018-02-14T20:43:13.922Z,19.00
2018-02-14T20:45:43.478Z,21.27
2018-02-14T20:48:12.936Z,18.90
2018-02-14T20:50:42.488Z,22.42
2018-02-14T20:53:11.993Z,17.58
2018-02-14T20:55:41.540Z,17.25
2018-02-14T20:58:11.045Z,18.58
2018-02-14T21:00:40.545Z,21.33
2018-02-14T21:03:10.671Z,22.80
2018-02-14T21:05:40.207Z,19.05
2018-02-14T21:08:09.727Z,20.80
2018-02-14T21:10:39.490Z,21.05
2018-02-14T21:13:09.042Z,19.20
2018-02-14T21:15:38.537Z,18.58
2018-02-14T21:18:08.008Z,20.25
2018-02-14T21:20:37.624Z,17.90
2018-02-14T21:23:07.177Z,17.77
2018-02-14T21:25:36.684Z,19.58
2018-02-14T21:28:06.202Z,19.60
2018-02-14T21:30:35.766Z,18.55
2018-02-14T21:33:05.253Z,23.70
2018-02-14T21:35:34.751Z,19.80
2018-02-14T21:38:04.222Z,18.98
2018-02-14T21:40:33.746Z,22.62
2018-02-14T21:43:03.234Z,19.67
2018-02-14T21:45:32.745Z,17.70
2018-02-14T21:48:02.250Z,19.92
2018-02-14T21:50:31.754Z,20.90
2018-02-14T21:53:01.344Z,20.58
2018-02-14T21:55:30.825Z,21.70
2018-02-14T21:58:00.348Z,17.45
2018-02-14T22:00:29.861Z,22.20
2018-02-14T22:02:59.391Z,18.62
2018-02-14T22:05:28.864Z,20.62
2018-02-14T22:07:58.385Z,19.60
2018-02-14T22:10:27.859Z,20.98
2018-02-14T22:12:57.381Z,23.92
2018-02-14T22:15:26.888Z,18.40
2018-02-14T22:17:56.440Z,21.25
2018-02-14T22:20:26.037Z,23.10
2018-02-14T22:22:55.523Z,22.40
2018-02-14T22:25:25.018Z,23.70
2018-02-14T22:27:54.506Z,20.67
2018-02-14T22:30:24.014Z,21.00
2018-02-14T22:32:53.521Z,17.15
2018-02-14T22:35:23.042Z,20.40
2018-02-14T22:37:52.513Z,18.67
2018-02-14T22:40:22.105Z,20.80
2018-02-14T22:42:51.594Z,20.23
2018-02-14T22:45:21.098Z,22.55
2018-02-14T22:47:50.591Z,21.80
2018-02-14T22:50:20.096Z,24.37
2018-02-14T22:52:49.605Z,19.52
2018-02-14T22:55:19.081Z,20.90
2018-02-14T22:57:48.624Z,23.10
2018-02-14T23:00:20.859Z,18.95
2018-02-14T23:02:50.378Z,19.87
2018-02-14T23:05:19.846Z,27.08
2018-02-14T23:07:49.390Z,18.92
2018-02-14T23:10:18.877Z,21.98
2018-02-14T23:12:48.378Z,21.85
2018-02-14T23:15:17.913Z,26.55
2018-02-14T23:17:47.408Z,21.00
2018-02-14T23:20:16.934Z,17.25
2018-02-14T23:22:46.386Z,18.92
2018-02-14T23:25:15.935Z,23.20
2018-02-14T23:27:45.419Z,22.02
2018-02-14T23:30:14.923Z,26.67
2018-02-14T23:32:44.397Z,25.35
2018-02-14T23:35:13.927Z,22.48
2018-02-14T23:37:43.610Z,23.10
2018-02-14T23:40:13.155Z,23.25
2018-02-14T23:42:42.623Z,21.12
2018-02-14T23:45:12.332Z,19.02
2018-02-14T23:47:41.804Z,20.00
2018-02-14T23:50:11.654Z,25.23
2018-02-14T23:52:41.141Z,20.40
2018-02-14T23:55:10.980Z,25.00
2018-02-14T23:57:40.500Z,24.25
